Cosco Kaohsiung — VREM3 — position and weather

sailwx.info

Track history (hours):
 
Tides and Currents Weather Stations Pressure Air Temp Water Temp Dewpoint Dewpoint Depression Visibility Wind Speed Wind Dir Waves Ship Positions

Cosco Kaohsiung

Last reported at 2014-Nov-24 07:17 UTC. Time now 2014-Nov-27 07:53 UTC.
Position N 38°10' W 124°01'.

Length 349 m; draft 11.5 m.

Type: Ship (hazmat cat A). MMSI: 477136800.

Date/timePositionNaut miles runAvg speedWind from/ knotsBaromVisibWave heightAir tempDewpointWater temp
2014-Nov-24 07:17N 38°10' W 124°01'1317.4
2014-Nov-24 06:33N 38°10' W 123°44'1717.3
2014-Nov-24 05:33N 38°10' W 123°22'1616.4
2014-Nov-24 04:33N 37°58' W 123°08'1717.0
2014-Nov-24 03:33N 37°50' W 122°50'1111.0
2014-Nov-24 02:33N 37°47' W 122°36'1211.8
2014-Nov-24 01:33N 37°48' W 122°21'3 2.8
2014-Nov-24 00:33N 37°48' W 122°18'1 0.9
2014-Nov-23 23:32N 37°48' W 122°19'0 0.0
2014-Nov-23 22:32N 37°48' W 122°19'0 0.0
2014-Nov-23 21:32N 37°48' W 122°19'0 0.0
2014-Nov-23 20:32N 37°48' W 122°19'0 0.0
2014-Nov-23 19:32N 37°48' W 122°19'0 0.0
2014-Nov-23 18:32N 37°48' W 122°19'0 0.0
2014-Nov-23 17:32N 37°48' W 122°19'0 0.0
2014-Nov-23 16:32N 37°48' W 122°19'0 0.0
2014-Nov-23 15:32N 37°48' W 122°19'0 0.0
2014-Nov-23 14:32N 37°48' W 122°19'0 0.0
2014-Nov-23 13:32N 37°48' W 122°19'0 0.0
2014-Nov-23 12:32N 37°48' W 122°19'0 0.0
2014-Nov-23 11:32N 37°48' W 122°19'0 0.0
2014-Nov-23 10:32N 37°48' W 122°19'0 0.0
2014-Nov-23 09:32N 37°48' W 122°19'0 0.0
2014-Nov-23 08:32N 37°48' W 122°19'0 0.0
2014-Nov-23 07:32N 37°48' W 122°19'0 0.0
2014-Nov-23 06:32N 37°48' W 122°19'0 0.0
2014-Nov-23 05:32N 37°48' W 122°19'0 0.0
2014-Nov-23 04:29N 37°48' W 122°19'0 0.0
2014-Nov-23 03:32N 37°48' W 122°19'0 0.0
2014-Nov-23 02:32N 37°48' W 122°19'0 0.0
2014-Nov-23 01:29N 37°48' W 122°19'0 0.0
2014-Nov-23 00:32N 37°48' W 122°19'0 0.0
2014-Nov-22 23:32N 37°48' W 122°19'0 0.0
2014-Nov-22 22:32N 37°48' W 122°19'0 0.0
2014-Nov-22 21:32N 37°48' W 122°19'0 0.0
2014-Nov-22 20:32N 37°48' W 122°19'0 0.0
2014-Nov-22 19:32N 37°48' W 122°19'0 0.0
2014-Nov-22 18:32N 37°48' W 122°19'0 0.0
2014-Nov-22 17:32N 37°48' W 122°19'0 0.0
2014-Nov-22 16:32N 37°48' W 122°19'0 0.0
2014-Nov-22 15:32N 37°48' W 122°19'0 0.0
2014-Nov-22 14:32N 37°48' W 122°19'0 0.0
2014-Nov-22 13:32N 37°48' W 122°19'2 2.2
2014-Nov-22 12:33N 37°48' W 122°22'1313.1
2014-Nov-22 11:34N 37°46' W 122°38'1110.6
2014-Nov-22 10:33N 37°40' W 122°49'1313.3
2014-Nov-22 09:33N 37°32' W 123°03'1110.9
2014-Nov-22 08:33N 37°21' W 123°04'1211.6
2014-Nov-22 07:32N 37°10' W 122°59'1111.3
2014-Nov-22 06:32N 36°60' W 122°54'1110.9
2014-Nov-22 05:33N 36°50' W 122°49'1111.1
2014-Nov-22 04:33N 36°39' W 122°43'1212.0
2014-Nov-22 03:33N 36°28' W 122°37'1414.2
2014-Nov-22 02:34N 36°16' W 122°29'1414.3
2014-Nov-22 01:34N 36°03' W 122°22'1414.1
2014-Nov-22 00:34N 35°50' W 122°15'1413.9
2014-Nov-21 23:33N 35°37' W 122°07'1413.9
2014-Nov-21 22:33N 35°26' W 121°58'1414.2
2014-Nov-21 21:33N 35°14' W 121°48'3314.2
2014-Nov-21 19:13N 34°47' W 121°25'9013.2
2014-Nov-21 12:23N 33°32' W 120°24'2613.9
2014-Nov-21 10:32N 33°31' W 119°53'1413.5
2014-Nov-21 09:30N 33°33' W 119°37'1212.6
2014-Nov-21 08:31N 33°35' W 119°22'5710.9
2014-Nov-21 03:18N 33°38' W 118°13'6 8.0
2014-Nov-21 02:33N 33°44' W 118°12'1 0.7
2014-Nov-21 01:32N 33°44' W 118°12'0 0.0
2014-Nov-21 00:32N 33°44' W 118°12'0 0.0
2014-Nov-20 23:32N 33°44' W 118°12'0 0.0
2014-Nov-20 22:32N 33°44' W 118°12'0 0.0
2014-Nov-20 21:32N 33°44' W 118°12'0 0.0
2014-Nov-20 20:32N 33°44' W 118°12'0 0.0
2014-Nov-20 19:32N 33°44' W 118°12'0 0.0
2014-Nov-20 18:29N 33°44' W 118°12'0 0.0
2014-Nov-20 17:32N 33°44' W 118°12'0 0.1
2014-Nov-20 16:32N 33°44' W 118°12'0 0.0
2014-Nov-20 15:32N 33°44' W 118°12'0 0.1
2014-Nov-20 14:32N 33°44' W 118°12'0 0.1
2014-Nov-20 13:32N 33°44' W 118°12'0 0.1
2014-Nov-20 12:32N 33°44' W 118°12'0 0.0
2014-Nov-20 11:32N 33°44' W 118°12'0 0.1
2014-Nov-20 10:32N 33°44' W 118°12'0 0.0
2014-Nov-20 09:32N 33°44' W 118°12'0 0.1
2014-Nov-20 08:32N 33°44' W 118°12'0 0.0
2014-Nov-20 07:32N 33°44' W 118°12'0 0.0
2014-Nov-20 06:32N 33°44' W 118°12'0 0.0
2014-Nov-20 05:32N 33°44' W 118°12'0 0.0
2014-Nov-20 04:32N 33°44' W 118°12'0 0.0
2014-Nov-20 03:32N 33°44' W 118°12'0 0.1
2014-Nov-20 02:32N 33°44' W 118°12'0 0.1
2014-Nov-20 01:32N 33°44' W 118°12'0 0.0
2014-Nov-20 00:32N 33°44' W 118°12'0 0.0
2014-Nov-19 23:32N 33°44' W 118°12'0 0.0
2014-Nov-19 22:32N 33°44' W 118°12'0 0.0
2014-Nov-19 21:32N 33°44' W 118°12'0 0.0
2014-Nov-19 20:32N 33°44' W 118°12'0 0.1
2014-Nov-19 19:32N 33°44' W 118°12'0 0.1
2014-Nov-19 18:32N 33°44' W 118°12'0 0.0
2014-Nov-19 17:32N 33°44' W 118°12'0 0.0
2014-Nov-19 16:32N 33°44' W 118°12'0 0.0
2014-Nov-19 15:11N 33°44' W 118°12'0 0.1
2014-Nov-19 14:29N 33°44' W 118°12'0 0.1
2014-Nov-19 13:32N 33°44' W 118°12'0 0.0
2014-Nov-19 12:32N 33°44' W 118°12'0 0.0
2014-Nov-19 11:32N 33°44' W 118°12'0 0.0
2014-Nov-19 10:32N 33°44' W 118°12'0 0.1
2014-Nov-19 09:32N 33°44' W 118°12'0 0.0
2014-Nov-19 08:26N 33°44' W 118°12'0 0.0
2014-Nov-19 07:32N 33°44' W 118°12'0 0.0
2014-Nov-19 06:32N 33°44' W 118°12'0 0.0
2014-Nov-19 05:32N 33°44' W 118°12'0 0.0
2014-Nov-19 04:32N 33°44' W 118°12'0 0.0
2014-Nov-19 03:32N 33°44' W 118°12'0 0.0
2014-Nov-19 02:32N 33°44' W 118°12'0 0.1
2014-Nov-19 01:32N 33°44' W 118°12'0 0.0
2014-Nov-19 00:32N 33°44' W 118°12'0 0.0
2014-Nov-18 23:32N 33°44' W 118°12'0 0.0
2014-Nov-18 22:32N 33°44' W 118°12'0 0.0
2014-Nov-18 21:32N 33°44' W 118°12'0 0.0
2014-Nov-18 20:29N 33°44' W 118°12'0 0.1
2014-Nov-18 19:32N 33°44' W 118°12'0 0.0
2014-Nov-18 18:32N 33°44' W 118°12'0 0.0
2014-Nov-18 17:32N 33°44' W 118°12'0 0.1
2014-Nov-18 16:32N 33°44' W 118°12'0 0.0
2014-Nov-18 15:32N 33°44' W 118°12'0 0.0
2014-Nov-18 14:32N 33°44' W 118°12'0 0.0
2014-Nov-18 13:32N 33°44' W 118°12'0 0.0
2014-Nov-18 12:32N 33°44' W 118°12'0 0.0
2014-Nov-18 11:32N 33°44' W 118°12'0 0.0
2014-Nov-18 10:32N 33°44' W 118°12'0 0.0
2014-Nov-18 09:29N 33°44' W 118°12'0 0.0
2014-Nov-18 08:32N 33°44' W 118°12'0 0.0
2014-Nov-18 07:29N 33°44' W 118°12'0 0.0
2014-Nov-18 06:29N 33°44' W 118°12'0 0.0
2014-Nov-18 05:32N 33°44' W 118°12'0 0.0
2014-Nov-18 04:32N 33°44' W 118°12'0 0.0
2014-Nov-18 03:32N 33°44' W 118°12'0 0.0
2014-Nov-18 02:32N 33°44' W 118°12'0 0.0
2014-Nov-18 01:32N 33°44' W 118°12'0 0.0
2014-Nov-18 00:32N 33°44' W 118°12'0 0.0
2014-Nov-17 23:32N 33°44' W 118°12'0 0.0
2014-Nov-17 21:32N 33°44' W 118°12'0 0.0
2014-Nov-17 20:32N 33°44' W 118°12'0 0.0
2014-Nov-17 19:32N 33°44' W 118°12'0 0.0
2014-Nov-16 18:32N 33°44' W 118°12'0 0.0
2014-Nov-16 17:32N 33°44' W 118°12'0 0.0
2014-Nov-16 16:32N 33°44' W 118°12'0 0.0
2014-Nov-16 15:32N 33°44' W 118°12'0 0.0
2014-Nov-16 14:32N 33°44' W 118°12'0 0.0
2014-Nov-16 13:32N 33°44' W 118°12'0 0.0
2014-Nov-16 12:32N 33°44' W 118°12'0 0.0
2014-Nov-16 11:32N 33°44' W 118°12'0 0.1
2014-Nov-16 10:32N 33°44' W 118°12'0 0.0
2014-Nov-16 09:29N 33°44' W 118°12'0 0.0
2014-Nov-16 08:32N 33°44' W 118°12'0 0.0
2014-Nov-16 07:32N 33°44' W 118°12'0 0.0
2014-Nov-16 06:32N 33°44' W 118°12'0 0.1
2014-Nov-16 05:32N 33°44' W 118°12'0 0.0
2014-Nov-16 04:32N 33°44' W 118°12'0 0.0
2014-Nov-16 03:32N 33°44' W 118°12'0 0.0
2014-Nov-16 02:32N 33°44' W 118°12'0 0.0
2014-Nov-16 01:32N 33°44' W 118°12'0 0.0
2014-Nov-16 00:32N 33°44' W 118°12'0 0.0
2014-Nov-15 23:32N 33°44' W 118°12'0 0.0
2014-Nov-15 22:32N 33°44' W 118°12'0 0.0
2014-Nov-15 21:32N 33°44' W 118°12'0 0.0
2014-Nov-15 20:32N 33°44' W 118°12'0 0.0
2014-Nov-15 19:32N 33°44' W 118°12'0 0.0
2014-Nov-15 18:32N 33°44' W 118°12'0 0.1
2014-Nov-15 17:32N 33°44' W 118°12'0 0.1
2014-Nov-15 16:32N 33°44' W 118°12'0 0.0
2014-Nov-15 15:29N 33°44' W 118°12'0 0.1
2014-Nov-15 14:29N 33°44' W 118°12'0 0.1
2014-Nov-15 13:32N 33°44' W 118°12'0 0.0
2014-Nov-15 12:32N 33°44' W 118°12'0 0.0
2014-Nov-15 11:32N 33°44' W 118°12'0 0.0
2014-Nov-15 10:32N 33°44' W 118°12'0 0.0
2014-Nov-15 09:32N 33°44' W 118°12'0 0.0
2014-Nov-15 08:32N 33°44' W 118°12'0 0.0
2014-Nov-15 07:32N 33°44' W 118°12'0 0.0
2014-Nov-15 06:32N 33°44' W 118°12'0 0.0
2014-Nov-15 05:32N 33°44' W 118°12'0 0.0
2014-Nov-15 04:32N 33°44' W 118°12'0 0.0
2014-Nov-15 03:32N 33°44' W 118°12'0 0.1
2014-Nov-15 02:32N 33°44' W 118°12'0 0.1
2014-Nov-15 01:32N 33°44' W 118°12'0 0.0
2014-Nov-15 00:32N 33°44' W 118°12'0 0.0
2014-Nov-14 23:32N 33°44' W 118°12'0 0.1
2014-Nov-14 22:32N 33°44' W 118°12'1 0.6
2014-Nov-14 21:34N 33°44' W 118°12'6 5.7
2014-Nov-14 20:33N 33°40' W 118°08'0 0.1
2014-Nov-14 17:21N 33°40' W 118°08'0 0.0
2014-Nov-14 14:33N 33°40' W 118°08'0 0.0
2014-Nov-14 12:15N 33°40' W 118°08'0 0.0
2014-Nov-14 08:30N 33°40' W 118°08'  
Track history (hours):
 
Tides and Currents Weather Stations Pressure Air Temp Water Temp Dewpoint Dewpoint Depression Visibility Wind Speed Wind Dir Waves Ship Positions

Cosco Kaohsiung

Last reported at 2014-Nov-24 07:17 UTC. Time now 2014-Nov-27 07:53 UTC.
Position N 38°10' W 124°01'.

Length 349 m; draft 11.5 m.

Type: Ship (hazmat cat A). MMSI: 477136800.

Date/timePositionNaut miles runAvg speedWind from/ knotsBaromVisibWave heightAir tempDewpointWater temp
2014-Nov-24 07:17N 38°10' W 124°01'1317.4
2014-Nov-24 06:33N 38°10' W 123°44'1717.3
2014-Nov-24 05:33N 38°10' W 123°22'1616.4
2014-Nov-24 04:33N 37°58' W 123°08'1717.0
2014-Nov-24 03:33N 37°50' W 122°50'1111.0
2014-Nov-24 02:33N 37°47' W 122°36'1211.8
2014-Nov-24 01:33N 37°48' W 122°21'3 2.8
2014-Nov-24 00:33N 37°48' W 122°18'1 0.9
2014-Nov-23 23:32N 37°48' W 122°19'0 0.0
2014-Nov-23 22:32N 37°48' W 122°19'0 0.0
2014-Nov-23 21:32N 37°48' W 122°19'0 0.0
2014-Nov-23 20:32N 37°48' W 122°19'0 0.0
2014-Nov-23 19:32N 37°48' W 122°19'0 0.0
2014-Nov-23 18:32N 37°48' W 122°19'0 0.0
2014-Nov-23 17:32N 37°48' W 122°19'0 0.0
2014-Nov-23 16:32N 37°48' W 122°19'0 0.0
2014-Nov-23 15:32N 37°48' W 122°19'0 0.0
2014-Nov-23 14:32N 37°48' W 122°19'0 0.0
2014-Nov-23 13:32N 37°48' W 122°19'0 0.0
2014-Nov-23 12:32N 37°48' W 122°19'0 0.0
2014-Nov-23 11:32N 37°48' W 122°19'0 0.0
2014-Nov-23 10:32N 37°48' W 122°19'0 0.0
2014-Nov-23 09:32N 37°48' W 122°19'0 0.0
2014-Nov-23 08:32N 37°48' W 122°19'0 0.0
2014-Nov-23 07:32N 37°48' W 122°19'0 0.0
2014-Nov-23 06:32N 37°48' W 122°19'0 0.0
2014-Nov-23 05:32N 37°48' W 122°19'0 0.0
2014-Nov-23 04:29N 37°48' W 122°19'0 0.0
2014-Nov-23 03:32N 37°48' W 122°19'0 0.0
2014-Nov-23 02:32N 37°48' W 122°19'0 0.0
2014-Nov-23 01:29N 37°48' W 122°19'0 0.0
2014-Nov-23 00:32N 37°48' W 122°19'0 0.0
2014-Nov-22 23:32N 37°48' W 122°19'0 0.0
2014-Nov-22 22:32N 37°48' W 122°19'0 0.0
2014-Nov-22 21:32N 37°48' W 122°19'0 0.0
2014-Nov-22 20:32N 37°48' W 122°19'0 0.0
2014-Nov-22 19:32N 37°48' W 122°19'0 0.0
2014-Nov-22 18:32N 37°48' W 122°19'0 0.0
2014-Nov-22 17:32N 37°48' W 122°19'0 0.0
2014-Nov-22 16:32N 37°48' W 122°19'0 0.0
2014-Nov-22 15:32N 37°48' W 122°19'0 0.0
2014-Nov-22 14:32N 37°48' W 122°19'0 0.0
2014-Nov-22 13:32N 37°48' W 122°19'2 2.2
2014-Nov-22 12:33N 37°48' W 122°22'1313.1
2014-Nov-22 11:34N 37°46' W 122°38'1110.6
2014-Nov-22 10:33N 37°40' W 122°49'1313.3
2014-Nov-22 09:33N 37°32' W 123°03'1110.9
2014-Nov-22 08:33N 37°21' W 123°04'1211.6
2014-Nov-22 07:32N 37°10' W 122°59'1111.3
2014-Nov-22 06:32N 36°60' W 122°54'1110.9
2014-Nov-22 05:33N 36°50' W 122°49'1111.1
2014-Nov-22 04:33N 36°39' W 122°43'1212.0
2014-Nov-22 03:33N 36°28' W 122°37'1414.2
2014-Nov-22 02:34N 36°16' W 122°29'1414.3
2014-Nov-22 01:34N 36°03' W 122°22'1414.1
2014-Nov-22 00:34N 35°50' W 122°15'1413.9
2014-Nov-21 23:33N 35°37' W 122°07'1413.9
2014-Nov-21 22:33N 35°26' W 121°58'1414.2
2014-Nov-21 21:33N 35°14' W 121°48'3314.2
2014-Nov-21 19:13N 34°47' W 121°25'9013.2
2014-Nov-21 12:23N 33°32' W 120°24'2613.9
2014-Nov-21 10:32N 33°31' W 119°53'1413.5
2014-Nov-21 09:30N 33°33' W 119°37'1212.6
2014-Nov-21 08:31N 33°35' W 119°22'5710.9
2014-Nov-21 03:18N 33°38' W 118°13'6 8.0
2014-Nov-21 02:33N 33°44' W 118°12'1 0.7
2014-Nov-21 01:32N 33°44' W 118°12'0 0.0
2014-Nov-21 00:32N 33°44' W 118°12'0 0.0
2014-Nov-20 23:32N 33°44' W 118°12'0 0.0
2014-Nov-20 22:32N 33°44' W 118°12'0 0.0
2014-Nov-20 21:32N 33°44' W 118°12'0 0.0
2014-Nov-20 20:32N 33°44' W 118°12'0 0.0
2014-Nov-20 19:32N 33°44' W 118°12'0 0.0
2014-Nov-20 18:29N 33°44' W 118°12'0 0.0
2014-Nov-20 17:32N 33°44' W 118°12'0 0.1
2014-Nov-20 16:32N 33°44' W 118°12'0 0.0
2014-Nov-20 15:32N 33°44' W 118°12'0 0.1
2014-Nov-20 14:32N 33°44' W 118°12'0 0.1
2014-Nov-20 13:32N 33°44' W 118°12'0 0.1
2014-Nov-20 12:32N 33°44' W 118°12'0 0.0
2014-Nov-20 11:32N 33°44' W 118°12'0 0.1
2014-Nov-20 10:32N 33°44' W 118°12'0 0.0
2014-Nov-20 09:32N 33°44' W 118°12'0 0.1
2014-Nov-20 08:32N 33°44' W 118°12'0 0.0
2014-Nov-20 07:32N 33°44' W 118°12'0 0.0
2014-Nov-20 06:32N 33°44' W 118°12'0 0.0
2014-Nov-20 05:32N 33°44' W 118°12'0 0.0
2014-Nov-20 04:32N 33°44' W 118°12'0 0.0
2014-Nov-20 03:32N 33°44' W 118°12'0 0.1
2014-Nov-20 02:32N 33°44' W 118°12'0 0.1
2014-Nov-20 01:32N 33°44' W 118°12'0 0.0
2014-Nov-20 00:32N 33°44' W 118°12'0 0.0
2014-Nov-19 23:32N 33°44' W 118°12'0 0.0
2014-Nov-19 22:32N 33°44' W 118°12'0 0.0
2014-Nov-19 21:32N 33°44' W 118°12'0 0.0
2014-Nov-19 20:32N 33°44' W 118°12'0 0.1
2014-Nov-19 19:32N 33°44' W 118°12'0 0.1
2014-Nov-19 18:32N 33°44' W 118°12'0 0.0
2014-Nov-19 17:32N 33°44' W 118°12'0 0.0
2014-Nov-19 16:32N 33°44' W 118°12'0 0.0
2014-Nov-19 15:11N 33°44' W 118°12'0 0.1
2014-Nov-19 14:29N 33°44' W 118°12'0 0.1
2014-Nov-19 13:32N 33°44' W 118°12'0 0.0
2014-Nov-19 12:32N 33°44' W 118°12'0 0.0
2014-Nov-19 11:32N 33°44' W 118°12'0 0.0
2014-Nov-19 10:32N 33°44' W 118°12'0 0.1
2014-Nov-19 09:32N 33°44' W 118°12'0 0.0
2014-Nov-19 08:26N 33°44' W 118°12'0 0.0
2014-Nov-19 07:32N 33°44' W 118°12'0 0.0
2014-Nov-19 06:32N 33°44' W 118°12'0 0.0
2014-Nov-19 05:32N 33°44' W 118°12'0 0.0
2014-Nov-19 04:32N 33°44' W 118°12'0 0.0
2014-Nov-19 03:32N 33°44' W 118°12'0 0.0
2014-Nov-19 02:32N 33°44' W 118°12'0 0.1
2014-Nov-19 01:32N 33°44' W 118°12'0 0.0
2014-Nov-19 00:32N 33°44' W 118°12'0 0.0
2014-Nov-18 23:32N 33°44' W 118°12'0 0.0
2014-Nov-18 22:32N 33°44' W 118°12'0 0.0
2014-Nov-18 21:32N 33°44' W 118°12'0 0.0
2014-Nov-18 20:29N 33°44' W 118°12'0 0.1
2014-Nov-18 19:32N 33°44' W 118°12'0 0.0
2014-Nov-18 18:32N 33°44' W 118°12'0 0.0
2014-Nov-18 17:32N 33°44' W 118°12'0 0.1
2014-Nov-18 16:32N 33°44' W 118°12'0 0.0
2014-Nov-18 15:32N 33°44' W 118°12'0 0.0
2014-Nov-18 14:32N 33°44' W 118°12'0 0.0
2014-Nov-18 13:32N 33°44' W 118°12'0 0.0
2014-Nov-18 12:32N 33°44' W 118°12'0 0.0
2014-Nov-18 11:32N 33°44' W 118°12'0 0.0
2014-Nov-18 10:32N 33°44' W 118°12'0 0.0
2014-Nov-18 09:29N 33°44' W 118°12'0 0.0
2014-Nov-18 08:32N 33°44' W 118°12'0 0.0
2014-Nov-18 07:29N 33°44' W 118°12'0 0.0
2014-Nov-18 06:29N 33°44' W 118°12'0 0.0
2014-Nov-18 05:32N 33°44' W 118°12'0 0.0
2014-Nov-18 04:32N 33°44' W 118°12'0 0.0
2014-Nov-18 03:32N 33°44' W 118°12'0 0.0
2014-Nov-18 02:32N 33°44' W 118°12'0 0.0
2014-Nov-18 01:32N 33°44' W 118°12'0 0.0
2014-Nov-18 00:32N 33°44' W 118°12'0 0.0
2014-Nov-17 23:32N 33°44' W 118°12'0 0.0
2014-Nov-17 21:32N 33°44' W 118°12'0 0.0
2014-Nov-17 20:32N 33°44' W 118°12'0 0.0
2014-Nov-17 19:32N 33°44' W 118°12'0 0.0
2014-Nov-16 18:32N 33°44' W 118°12'0 0.0
2014-Nov-16 17:32N 33°44' W 118°12'0 0.0
2014-Nov-16 16:32N 33°44' W 118°12'0 0.0
2014-Nov-16 15:32N 33°44' W 118°12'0 0.0
2014-Nov-16 14:32N 33°44' W 118°12'0 0.0
2014-Nov-16 13:32N 33°44' W 118°12'0 0.0
2014-Nov-16 12:32N 33°44' W 118°12'0 0.0
2014-Nov-16 11:32N 33°44' W 118°12'0 0.1
2014-Nov-16 10:32N 33°44' W 118°12'0 0.0
2014-Nov-16 09:29N 33°44' W 118°12'0 0.0
2014-Nov-16 08:32N 33°44' W 118°12'0 0.0
2014-Nov-16 07:32N 33°44' W 118°12'0 0.0
2014-Nov-16 06:32N 33°44' W 118°12'0 0.1
2014-Nov-16 05:32N 33°44' W 118°12'0 0.0
2014-Nov-16 04:32N 33°44' W 118°12'0 0.0
2014-Nov-16 03:32N 33°44' W 118°12'0 0.0
2014-Nov-16 02:32N 33°44' W 118°12'0 0.0
2014-Nov-16 01:32N 33°44' W 118°12'0 0.0
2014-Nov-16 00:32N 33°44' W 118°12'0 0.0
2014-Nov-15 23:32N 33°44' W 118°12'0 0.0
2014-Nov-15 22:32N 33°44' W 118°12'0 0.0
2014-Nov-15 21:32N 33°44' W 118°12'0 0.0
2014-Nov-15 20:32N 33°44' W 118°12'0 0.0
2014-Nov-15 19:32N 33°44' W 118°12'0 0.0
2014-Nov-15 18:32N 33°44' W 118°12'0 0.1
2014-Nov-15 17:32N 33°44' W 118°12'0 0.1
2014-Nov-15 16:32N 33°44' W 118°12'0 0.0
2014-Nov-15 15:29N 33°44' W 118°12'0 0.1
2014-Nov-15 14:29N 33°44' W 118°12'0 0.1
2014-Nov-15 13:32N 33°44' W 118°12'0 0.0
2014-Nov-15 12:32N 33°44' W 118°12'0 0.0
2014-Nov-15 11:32N 33°44' W 118°12'0 0.0
2014-Nov-15 10:32N 33°44' W 118°12'0 0.0
2014-Nov-15 09:32N 33°44' W 118°12'0 0.0
2014-Nov-15 08:32N 33°44' W 118°12'0 0.0
2014-Nov-15 07:32N 33°44' W 118°12'0 0.0
2014-Nov-15 06:32N 33°44' W 118°12'0 0.0
2014-Nov-15 05:32N 33°44' W 118°12'0 0.0
2014-Nov-15 04:32N 33°44' W 118°12'0 0.0
2014-Nov-15 03:32N 33°44' W 118°12'0 0.1
2014-Nov-15 02:32N 33°44' W 118°12'0 0.1
2014-Nov-15 01:32N 33°44' W 118°12'0 0.0
2014-Nov-15 00:32N 33°44' W 118°12'0 0.0
2014-Nov-14 23:32N 33°44' W 118°12'0 0.1
2014-Nov-14 22:32N 33°44' W 118°12'1 0.6
2014-Nov-14 21:34N 33°44' W 118°12'6 5.7
2014-Nov-14 20:33N 33°40' W 118°08'0 0.1
2014-Nov-14 17:21N 33°40' W 118°08'0 0.0
2014-Nov-14 14:33N 33°40' W 118°08'0 0.0
2014-Nov-14 12:15N 33°40' W 118°08'0 0.0
2014-Nov-14 08:30N 33°40' W 118°08'  

Dump ship's entire track history